Time;durP1;ratioP1;P1;durP2;ratioP2;P2;SDS_P1;SDS_P2;PMS_P1;PMS_P2;Temp;Humidity;BMP_temperature;BMP_pressure;BME280_temperature;BME280_humidity;BME280_pressure;Samples;Min_cycle;Max_cycle;Signal;HPM_P1;HPM_P2
2021/09/02 00:00:34;;;;;;;15.30;7.00;;;12.80;1.00;;;;;;5033089;28;20254;-79
2021/09/02 00:03:04;;;;;;;16.60;7.47;;;12.80;1.00;;;;;;5024034;28;20419;-79
2021/09/02 00:05:57;;;;;;;21.97;7.30;;;12.80;1.00;;;;;;5019806;28;20386;-79
2021/09/02 00:08:27;;;;;;;11.50;6.57;;;12.70;1.00;;;;;;5014080;28;20435;-79
2021/09/02 00:11:21;;;;;;;11.40;6.93;;;12.70;1.00;;;;;;5029709;28;20423;-79
2021/09/02 00:14:21;;;;;;;11.83;6.57;;;12.70;1.00;;;;;;5032925;28;20448;-77
2021/09/02 00:16:48;;;;;;;15.27;7.93;;;12.70;1.00;;;;;;5019637;28;20416;-77
2021/09/02 00:19:21;;;;;;;12.37;6.57;;;12.70;1.00;;;;;;5014306;28;20455;-77
2021/09/02 00:21:47;;;;;;;15.93;7.53;;;12.60;1.00;;;;;;5030892;28;20405;-77
2021/09/02 00:24:13;;;;;;;14.30;7.20;;;12.60;1.00;;;;;;5033024;28;20411;-76
2021/09/02 00:26:42;;;;;;;15.43;6.60;;;12.50;1.00;;;;;;5033905;28;20384;-79
2021/09/02 00:29:10;;;;;;;12.00;6.70;;;12.60;1.00;;;;;;5029910;28;20168;-79
2021/09/02 00:31:57;;;;;;;21.27;7.90;;;12.50;1.00;;;;;;5025024;28;20416;-79
2021/09/02 00:34:33;;;;;;;31.27;7.27;;;12.40;1.00;;;;;;5019868;28;20461;-79
2021/09/02 00:37:51;;;;;;;11.20;7.10;;;12.40;1.00;;;;;;5033445;28;20457;-79
2021/09/02 00:40:21;;;;;;;12.63;6.60;;;12.40;1.00;;;;;;5019069;28;20434;-79
2021/09/02 00:43:04;;;;;;;12.80;7.33;;;12.40;1.00;;;;;;5012680;28;20408;-77
2021/09/02 00:45:45;;;;;;;17.87;8.03;;;12.30;1.00;;;;;;5028098;28;20415;-77
2021/09/02 00:48:11;;;;;;;11.93;6.93;;;12.30;1.00;;;;;;5031415;28;20907;-77
2021/09/02 00:50:46;;;;;;;16.90;7.57;;;12.30;1.00;;;;;;5018478;28;20455;-77
2021/09/02 00:53:39;;;;;;;15.50;7.67;;;12.30;1.00;;;;;;5037378;28;20168;-77
2021/09/02 00:59:08;;;;;;;13.60;7.07;;;12.30;1.00;;;;;;5030637;28;20966;-79
2021/09/02 01:01:34;;;;;;;19.73;7.30;;;12.20;1.00;;;;;;5033220;28;20438;-80
2021/09/02 01:04:04;;;;;;;13.03;7.70;;;12.20;1.00;;;;;;5028064;28;20184;-79
2021/09/02 01:06:51;;;;;;;12.40;7.23;;;12.20;1.00;;;;;;5022913;28;20184;-79
2021/09/02 01:09:52;;;;;;;15.37;6.50;;;12.20;1.00;;;;;;5034433;28;20757;-79
2021/09/02 01:12:45;;;;;;;10.37;6.70;;;12.10;1.00;;;;;;5023419;28;20453;-76
2021/09/02 01:15:16;;;;;;;12.23;7.60;;;12.10;1.00;;;;;;5037472;28;20426;-77
2021/09/02 01:17:59;;;;;;;13.10;7.53;;;12.10;1.00;;;;;;5017132;28;20411;-77
2021/09/02 01:20:30;;;;;;;12.63;6.70;;;12.00;1.00;;;;;;5032471;28;20919;-77
2021/09/02 01:22:59;;;;;;;10.67;6.67;;;12.00;1.00;;;;;;5036953;28;20398;-77
2021/09/02 01:25:32;;;;;;;20.90;7.07;;;12.10;1.00;;;;;;5035926;28;20418;-77
2021/09/02 01:28:01;;;;;;;13.10;7.50;;;12.00;1.00;;;;;;5036527;28;20815;-76
2021/09/02 01:30:27;;;;;;;11.80;7.30;;;12.00;1.00;;;;;;5034492;28;20487;-76
2021/09/02 01:32:54;;;;;;;14.27;7.43;;;12.00;1.00;;;;;;5036495;28;20384;-77
2021/09/02 01:35:45;;;;;;;13.37;7.43;;;12.00;1.00;;;;;;5036335;28;20398;-77
2021/09/02 01:38:11;;;;;;;13.20;7.00;;;12.00;1.00;;;;;;5016543;28;20589;-77
2021/09/02 01:40:57;;;;;;;19.00;8.03;;;11.90;1.00;;;;;;5031857;28;20409;-77
2021/09/02 01:43:23;;;;;;;12.90;8.17;;;12.00;1.00;;;;;;5036963;28;20387;-79
2021/09/02 01:46:09;;;;;;;15.17;7.67;;;11.90;1.00;;;;;;5035767;28;20472;-80
2021/09/02 01:48:39;;;;;;;17.90;8.40;;;11.90;1.00;;;;;;5034510;28;20180;-80
2021/09/02 01:51:09;;;;;;;17.63;7.63;;;11.90;1.00;;;;;;5035426;28;20863;-79
2021/09/02 01:54:03;;;;;;;14.87;7.67;;;11.90;1.00;;;;;;5035723;28;20508;-80
2021/09/02 01:56:33;;;;;;;22.63;7.80;;;11.90;1.00;;;;;;5014853;28;20412;-79
2021/09/02 01:59:33;;;;;;;16.47;8.17;;;11.90;1.00;;;;;;5016776;28;20447;-79
2021/09/02 02:02:09;;;;;;;15.43;7.90;;;12.00;1.00;;;;;;5019115;28;20823;-79
2021/09/02 02:04:39;;;;;;;19.33;7.73;;;11.90;1.00;;;;;;5031000;28;20419;-79
2021/09/02 02:07:07;;;;;;;17.80;7.90;;;12.00;1.00;;;;;;5025702;28;20411;-79
2021/09/02 02:09:33;;;;;;;16.37;8.90;;;12.00;1.00;;;;;;5034128;28;20436;-79
2021/09/02 02:12:09;;;;;;;21.23;8.00;;;12.00;1.00;;;;;;5035606;28;20460;-79
2021/09/02 02:14:36;;;;;;;14.00;8.00;;;12.00;1.00;;;;;;5025738;28;20902;-76
2021/09/02 02:17:09;;;;;;;18.13;8.20;;;12.00;1.00;;;;;;5035761;28;20506;-77
2021/09/02 02:19:35;;;;;;;17.00;8.60;;;12.00;1.00;;;;;;5030282;28;20471;-76
2021/09/02 02:22:21;;;;;;;12.00;8.00;;;12.00;1.00;;;;;;5016532;28;20496;-76
2021/09/02 02:24:57;;;;;;;23.27;8.93;;;12.00;1.00;;;;;;5015781;28;20930;-77
2021/09/02 02:27:23;;;;;;;26.33;7.97;;;12.00;1.00;;;;;;5015752;28;20420;-77
2021/09/02 02:29:51;;;;;;;15.27;7.43;;;12.00;1.00;;;;;;5017125;28;20455;-79
2021/09/02 02:33:03;;;;;;;14.43;8.00;;;12.00;1.00;;;;;;5035569;28;20165;-80
2021/09/02 02:35:33;;;;;;;17.00;7.77;;;12.00;1.00;;;;;;5031281;28;21001;-79
2021/09/02 02:38:09;;;;;;;21.83;7.93;;;12.00;1.00;;;;;;5020778;28;20777;-79
2021/09/02 02:40:51;;;;;;;18.57;9.37;;;12.00;1.00;;;;;;5029571;28;21028;-79
2021/09/02 02:43:21;;;;;;;19.60;8.93;;;12.00;1.00;;;;;;5015854;28;20407;-79
2021/09/02 02:45:52;;;;;;;11.97;7.40;;;12.00;1.00;;;;;;5020886;28;20423;-79
2021/09/02 02:48:21;;;;;;;16.67;8.80;;;11.90;1.00;;;;;;5034933;28;20419;-79
2021/09/02 02:51:03;;;;;;;14.87;7.80;;;11.90;1.00;;;;;;5034069;28;20441;-79
2021/09/02 02:54:03;;;;;;;13.50;7.33;;;11.90;1.00;;;;;;5025238;28;20414;-79
2021/09/02 02:56:33;;;;;;;18.73;7.63;;;11.90;1.00;;;;;;5015160;28;20434;-79
2021/09/02 02:59:15;;;;;;;23.43;7.93;;;11.90;1.00;;;;;;5026288;28;20464;-79
2021/09/02 03:01:42;;;;;;;16.87;7.77;;;;;;;;;;5023730;28;20414;-79
2021/09/02 03:04:09;;;;;;;16.93;8.07;;;11.90;1.00;;;;;;5025991;28;20408;-79
2021/09/02 03:06:39;;;;;;;12.97;6.97;;;11.90;1.00;;;;;;5024605;28;20415;-79
2021/09/02 03:09:05;;;;;;;20.97;8.70;;;11.80;1.00;;;;;;5034815;28;20434;-80
2021/09/02 03:11:32;;;;;;;15.37;7.60;;;11.80;1.00;;;;;;5034198;28;20423;-79
2021/09/02 03:14:15;;;;;;;31.57;8.17;;;11.80;1.00;;;;;;5033400;28;20223;-77
2021/09/02 03:16:45;;;;;;;20.63;8.00;;;11.80;1.00;;;;;;5021265;28;20783;-77
2021/09/02 03:19:21;;;;;;;16.00;7.77;;;11.80;1.00;;;;;;5033369;28;20803;-76
2021/09/02 03:22:09;;;;;;;13.60;7.43;;;11.80;1.00;;;;;;5034449;28;20798;-76
2021/09/02 03:24:46;;;;;;;15.13;7.80;;;11.70;1.00;;;;;;5034463;28;20541;-76
2021/09/02 03:27:16;;;;;;;17.00;8.47;;;11.70;1.00;;;;;;5033932;28;20488;-77
2021/09/02 03:29:57;;;;;;;20.93;8.20;;;11.70;1.00;;;;;;5034594;28;20395;-80
2021/09/02 03:32:24;;;;;;;20.90;7.93;;;11.70;1.00;;;;;;5033948;28;20411;-80
2021/09/02 03:34:57;;;;;;;18.73;8.53;;;11.70;1.00;;;;;;5018136;28;20498;-79
2021/09/02 03:37:27;;;;;;;23.30;8.70;;;11.60;1.00;;;;;;5027484;28;20419;-79
2021/09/02 03:39:57;;;;;;;23.07;8.50;;;11.60;1.00;;;;;;5034020;28;20450;-79
2021/09/02 03:42:33;;;;;;;15.50;7.70;;;11.60;1.00;;;;;;5033695;28;20462;-79
2021/09/02 03:44:59;;;;;;;15.80;7.80;;;11.60;1.00;;;;;;5034442;28;20399;-80
2021/09/02 03:47:49;;;;;;;20.03;8.20;;;11.60;1.00;;;;;;5017943;28;20430;-79
2021/09/02 03:50:21;;;;;;;15.80;7.23;;;11.60;1.00;;;;;;5033586;28;20166;-79
2021/09/02 03:53:09;;;;;;;19.30;8.67;;;11.50;1.00;;;;;;5033246;28;20427;-83
2021/09/02 03:55:35;;;;;;;21.00;8.40;;;11.50;1.00;;;;;;5026925;28;20438;-77
2021/09/02 03:58:00;;;;;;;14.77;8.57;;;11.50;1.00;;;;;;5025290;28;20514;-77
2021/09/02 04:00:27;;;;;;;19.30;8.47;;;11.40;1.00;;;;;;5032626;28;20160;-76
2021/09/02 04:02:53;;;;;;;15.90;8.10;;;11.40;1.00;;;;;;5026063;28;20648;-76
2021/09/02 04:05:21;;;;;;;14.90;8.57;;;11.40;1.00;;;;;;5028139;28;20541;-76
2021/09/02 04:07:51;;;;;;;16.93;8.60;;;11.40;1.00;;;;;;5034065;28;20180;-77
2021/09/02 04:10:21;;;;;;;15.90;8.70;;;11.40;1.00;;;;;;5032485;28;20949;-80
2021/09/02 04:12:47;;;;;;;19.23;8.20;;;11.50;1.00;;;;;;5032425;28;20804;-76
2021/09/02 04:15:21;;;;;;;15.97;8.60;;;11.30;1.00;;;;;;5033959;28;20430;-76
2021/09/02 04:18:03;;;;;;;14.20;7.80;;;11.30;1.00;;;;;;5023820;28;20191;-76
2021/09/02 04:21:04;;;;;;;15.07;8.30;;;11.30;1.00;;;;;;5033014;28;20439;-77
2021/09/02 04:23:39;;;;;;;19.50;8.93;;;11.30;1.00;;;;;;5032624;28;20420;-76
2021/09/02 04:26:21;;;;;;;17.47;9.33;;;11.20;1.00;;;;;;5032807;28;20419;-76
2021/09/02 04:28:51;;;;;;;21.83;8.77;;;11.30;1.00;;;;;;5037869;28;20887;-78
2021/09/02 04:31:17;;;;;;;16.70;9.60;;;11.30;1.00;;;;;;5037115;28;20413;-79
2021/09/02 04:33:45;;;;;;;19.40;9.70;;;11.30;1.00;;;;;;5037543;28;20913;-79
2021/09/02 04:36:21;;;;;;;16.13;8.30;;;11.30;1.00;;;;;;5035686;28;20523;-79
2021/09/02 04:38:51;;;;;;;29.13;9.80;;;11.30;1.00;;;;;;5017626;28;20444;-81
2021/09/02 04:41:21;;;;;;;21.03;9.37;;;11.30;1.00;;;;;;5025422;28;20417;-80
2021/09/02 04:44:33;;;;;;;17.37;9.10;;;11.30;1.00;;;;;;5037740;28;20871;-79
2021/09/02 04:46:58;;;;;;;16.47;9.07;;;11.30;1.00;;;;;;5021812;28;20420;-79
2021/09/02 04:49:27;;;;;;;20.33;9.20;;;11.30;1.00;;;;;;5033540;28;20426;-77
2021/09/02 04:52:04;;;;;;;18.53;9.07;;;11.40;1.00;;;;;;5036502;28;20219;-77
2021/09/02 04:54:33;;;;;;;17.43;9.10;;;11.40;1.00;;;;;;5037239;28;20395;-77
2021/09/02 04:57:10;;;;;;;17.27;9.60;;;11.40;1.00;;;;;;5037219;28;20474;-80
2021/09/02 04:59:40;;;;;;;28.67;9.13;;;11.40;1.00;;;;;;5037154;28;20533;-79
2021/09/02 05:02:06;;;;;;;24.23;9.17;;;11.40;1.00;;;;;;5030648;28;20803;-81
2021/09/02 05:04:51;;;;;;;17.87;8.90;;;11.40;1.00;;;;;;5035459;28;20437;-81
2021/09/02 05:07:27;;;;;;;14.93;8.00;;;11.40;1.00;;;;;;5027238;28;20412;-83
2021/09/02 05:10:15;;;;;;;26.67;9.30;;;11.40;1.00;;;;;;5035782;28;20430;-85
2021/09/02 05:12:51;;;;;;;22.47;9.50;;;11.50;1.00;;;;;;5035716;28;20914;-83
2021/09/02 05:15:18;;;;;;;29.53;11.50;;;;;;;;;;5036075;28;20464;-82
2021/09/02 05:17:58;;;;;;;20.37;10.43;;;;;;;;;;5035496;28;20450;-82
2021/09/02 05:23:51;;;;;;;28.13;10.80;;;11.60;1.00;;;;;;5036594;28;20412;-83
2021/09/02 05:26:22;;;;;;;24.47;10.37;;;11.70;1.00;;;;;;5035488;28;20494;-83
2021/09/02 05:28:51;;;;;;;23.43;9.27;;;11.70;1.00;;;;;;5032011;28;20470;-84
2021/09/02 05:31:22;;;;;;;20.60;10.00;;;11.80;1.00;;;;;;5034262;28;20426;-82
2021/09/02 05:33:51;;;;;;;25.77;10.50;;;11.80;1.00;;;;;;5035349;28;20429;-77
2021/09/02 05:36:21;;;;;;;26.37;9.57;;;11.80;1.00;;;;;;5035872;28;20806;-80
2021/09/02 05:39:21;;;;;;;28.90;9.77;;;11.90;1.00;;;;;;5034174;28;20454;-80
2021/09/02 05:41:48;;;;;;;19.73;10.27;;;11.90;1.00;;;;;;5032713;28;20427;-79
2021/09/02 05:44:21;;;;;;;28.10;10.17;;;12.00;1.00;;;;;;5036409;28;20772;-77
2021/09/02 05:46:52;;;;;;;32.50;10.00;;;12.10;1.00;;;;;;5036174;28;20473;-76
2021/09/02 05:49:17;;;;;;;25.03;10.50;;;12.20;1.00;;;;;;5036243;28;20841;-76
2021/09/02 05:52:15;;;;;;;25.90;10.80;;;12.30;1.00;;;;;;5035246;28;20498;-76
2021/09/02 05:54:53;;;;;;;21.90;9.37;;;12.30;1.00;;;;;;5023667;28;20195;-76
2021/09/02 05:57:22;;;;;;;23.10;10.20;;;12.40;1.00;;;;;;5049356;28;20769;-76
2021/09/02 05:59:51;;;;;;;23.47;10.40;;;12.50;1.00;;;;;;5032062;28;21012;-76
2021/09/02 06:02:21;;;;;;;24.70;9.63;;;12.50;1.00;;;;;;5031964;28;20784;-76
2021/09/02 06:04:52;;;;;;;16.00;9.87;;;12.60;1.00;;;;;;5021225;28;20407;-76
2021/09/02 06:07:17;;;;;;;19.20;9.10;;;12.70;1.00;;;;;;5032173;28;20499;-76
2021/09/02 06:09:43;;;;;;;22.10;9.80;;;;;;;;;;5032870;28;20479;-76
2021/09/02 06:12:10;;;;;;;27.27;9.43;;;12.80;1.00;;;;;;5016351;28;20177;-76
2021/09/02 06:14:39;;;;;;;16.17;9.63;;;12.90;1.00;;;;;;5020703;28;20447;-77
2021/09/02 06:17:09;;;;;;;21.20;9.20;;;13.00;1.00;;;;;;5031094;28;20405;-77
2021/09/02 06:19:39;;;;;;;19.30;8.93;;;13.00;1.00;;;;;;5035868;28;20446;-76
2021/09/02 06:22:09;;;;;;;22.13;9.83;;;13.10;1.00;;;;;;5032319;28;21994;-76
2021/09/02 06:24:45;;;;;;;16.50;9.03;;;13.20;1.00;;;;;;5030488;28;20906;-76
2021/09/02 06:27:15;;;;;;;21.70;9.77;;;13.30;1.00;;;;;;5031186;28;20497;-76
2021/09/02 06:29:45;;;;;;;36.70;10.20;;;13.40;1.00;;;;;;5033596;28;20419;-77
2021/09/02 06:32:11;;;;;;;18.80;9.57;;;13.40;1.00;;;;;;5033563;28;20427;-76
2021/09/02 06:34:39;;;;;;;29.77;12.50;;;13.50;1.00;;;;;;5030381;28;20419;-77
2021/09/02 06:37:05;;;;;;;26.47;10.83;;;13.60;1.00;;;;;;5035022;28;20165;-76
2021/09/02 06:39:45;;;;;;;22.53;11.20;;;13.70;1.00;;;;;;5034402;28;20458;-76
2021/09/02 06:42:16;;;;;;;24.53;9.90;;;13.80;1.00;;;;;;5035461;28;20168;-76
2021/09/02 06:45:03;;;;;;;29.13;10.93;;;13.90;1.00;;;;;;5035131;28;20902;-79
2021/09/02 06:47:45;;;;;;;22.73;10.43;;;14.00;1.00;;;;;;5031021;28;20423;-76
2021/09/02 06:50:15;;;;;;;25.33;10.40;;;14.10;1.00;;;;;;5014668;28;20855;-76
2021/09/02 06:52:51;;;;;;;22.77;9.30;;;14.20;1.00;;;;;;5015614;28;20399;-77
2021/09/02 06:55:21;;;;;;;34.30;10.10;;;14.40;1.00;;;;;;5026527;28;20390;-76
2021/09/02 06:57:57;;;;;;;25.00;9.87;;;14.50;1.00;;;;;;5027292;28;20453;-76
2021/09/02 07:00:27;;;;;;;18.53;9.17;;;14.50;1.00;;;;;;5020596;28;20869;-79
2021/09/02 07:03:09;;;;;;;13.77;9.17;;;14.70;1.00;;;;;;5027994;28;20441;-79
2021/09/02 07:05:39;;;;;;;15.83;8.50;;;14.80;1.00;;;;;;5029749;28;20419;-79
2021/09/02 07:08:21;;;;;;;14.10;8.30;;;14.90;1.00;;;;;;5034293;28;20545;-79
2021/09/02 07:11:04;;;;;;;16.63;8.67;;;15.00;1.00;;;;;;5033858;28;20842;-81
2021/09/02 07:13:30;;;;;;;20.00;8.77;;;15.10;1.00;;;;;;5015590;28;20485;-83
2021/09/02 07:16:04;;;;;;;19.70;8.33;;;15.20;1.00;;;;;;5024247;28;20518;-76
2021/09/02 07:18:39;;;;;;;14.23;7.50;;;15.40;1.00;;;;;;5031629;28;20864;-76
2021/09/02 07:21:21;;;;;;;17.53;8.57;;;15.70;1.00;;;;;;5033384;28;20921;-76
2021/09/02 07:24:09;;;;;;;12.13;7.57;;;15.90;1.00;;;;;;5023897;28;20423;-77
2021/09/02 07:26:57;;;;;;;24.23;8.60;;;16.20;1.00;;;;;;5015912;28;20484;-77
2021/09/02 07:29:23;;;;;;;13.93;8.27;;;16.30;1.00;;;;;;5021012;28;20395;-77
2021/09/02 07:31:49;;;;;;;20.83;8.97;;;16.40;1.00;;;;;;5025840;28;20426;-79
2021/09/02 07:34:45;;;;;;;18.60;8.10;;;16.50;1.00;;;;;;5023014;28;20176;-80
2021/09/02 07:37:27;;;;;;;19.40;8.17;;;16.70;1.00;;;;;;5023500;28;20439;-79
2021/09/02 07:40:33;;;;;;;20.07;8.80;;;16.70;1.00;;;;;;5033939;28;20972;-79
2021/09/02 07:42:58;;;;;;;19.50;8.33;;;16.80;1.00;;;;;;5030700;28;20419;-79
2021/09/02 07:45:27;;;;;;;13.67;7.80;;;17.00;1.00;;;;;;5014414;28;20418;-79
2021/09/02 07:48:15;;;;;;;19.70;8.63;;;17.00;1.00;;;;;;5014029;28;20170;-79
2021/09/02 07:54:02;;;;;;;22.13;7.90;;;17.10;1.00;;;;;;5033594;28;20381;-78
2021/09/02 07:56:28;;;;;;;12.00;7.77;;;17.20;1.00;;;;;;5025540;28;20439;-79
2021/09/02 07:58:57;;;;;;;13.43;8.00;;;17.20;1.00;;;;;;5031850;28;20200;-79
2021/09/02 08:01:23;;;;;;;18.17;7.60;;;17.30;1.00;;;;;;5032014;28;20178;-77
2021/09/02 08:03:49;;;;;;;16.00;8.30;;;;;;;;;;5023858;28;20395;-76
2021/09/02 08:06:15;;;;;;;10.63;6.83;;;17.40;1.00;;;;;;5021500;28;20522;-76
2021/09/02 08:08:41;;;;;;;15.60;8.73;;;17.40;1.00;;;;;;5029232;28;20447;-76
2021/09/02 08:11:08;;;;;;;15.47;7.40;;;17.50;1.00;;;;;;5032075;28;20812;-77
2021/09/02 08:13:35;;;;;;;12.03;7.17;;;17.50;1.00;;;;;;5028693;28;20416;-77
2021/09/02 08:16:00;;;;;;;19.97;7.40;;;17.60;1.00;;;;;;5013284;28;20602;-78
2021/09/02 08:18:26;;;;;;;12.90;7.43;;;17.60;1.00;;;;;;5017757;28;20393;-78
2021/09/02 08:20:52;;;;;;;19.53;7.40;;;17.40;1.00;;;;;;5030845;28;20240;-79
2021/09/02 08:23:18;;;;;;;13.17;7.30;;;17.80;1.00;;;;;;5029897;28;20269;-80
2021/09/02 08:25:43;;;;;;;12.33;7.93;;;17.90;1.00;;;;;;5013039;28;20164;-79
2021/09/02 08:28:09;;;;;;;19.27;7.60;;;18.00;1.00;;;;;;5022545;28;20417;-79
2021/09/02 08:30:35;;;;;;;12.70;7.20;;;18.00;1.00;;;;;;5028975;28;20665;-79
2021/09/02 08:33:01;;;;;;;11.50;6.67;;;18.10;1.00;;;;;;5020332;28;20654;-77
2021/09/02 08:35:30;;;;;;;14.33;7.77;;;18.20;1.00;;;;;;5024455;28;20542;-78
2021/09/02 08:37:59;;;;;;;12.43;6.73;;;18.30;1.00;;;;;;5014535;28;20650;-77
2021/09/02 08:40:27;;;;;;;13.90;7.90;;;18.30;1.00;;;;;;5027664;28;20455;-77
2021/09/02 08:42:54;;;;;;;23.43;8.37;;;18.60;1.00;;;;;;5029922;28;20479;-77
2021/09/02 08:45:21;;;;;;;16.57;7.87;;;18.80;1.00;;;;;;5032114;28;20579;-77
2021/09/02 08:47:48;;;;;;;14.00;7.90;;;18.70;1.00;;;;;;5032813;28;20394;-77
2021/09/02 08:50:15;;;;;;;10.90;6.90;;;18.70;1.00;;;;;;5027828;28;20444;-77
2021/09/02 08:52:41;;;;;;;13.67;7.23;;;18.90;1.00;;;;;;5014523;28;20439;-77
2021/09/02 08:55:08;;;;;;;16.27;7.67;;;19.10;1.00;;;;;;5030507;28;20455;-76
2021/09/02 08:57:34;;;;;;;12.87;7.67;;;19.20;1.00;;;;;;5025421;28;20639;-77
2021/09/02 09:00:00;;;;;;;9.67;6.37;;;19.20;1.00;;;;;;5019452;28;20502;-76
2021/09/02 09:02:28;;;;;;;14.63;6.97;;;19.30;1.00;;;;;;5015613;28;20195;-77
2021/09/02 09:05:01;;;;;;;9.23;6.57;;;19.30;1.00;;;;;;5025720;28;20598;-77
2021/09/02 09:07:32;;;;;;;11.90;7.47;;;19.40;1.00;;;;;;5017777;28;20832;-77
2021/09/02 09:09:57;;;;;;;13.20;6.90;;;19.40;1.00;;;;;;5027235;28;20500;-77
2021/09/02 09:12:41;;;;;;;14.07;7.13;;;19.60;1.00;;;;;;5017671;28;20517;-77
2021/09/02 09:15:09;;;;;;;11.70;7.07;;;19.70;1.00;;;;;;5032437;28;20538;-77
2021/09/02 09:17:35;;;;;;;11.20;7.20;;;19.80;1.00;;;;;;5030014;28;20918;-80
2021/09/02 09:20:06;;;;;;;11.60;7.23;;;19.90;1.00;;;;;;5033217;28;20462;-79
2021/09/02 09:22:33;;;;;;;13.10;7.20;;;19.80;1.00;;;;;;5029648;28;20434;-79
2021/09/02 09:25:08;;;;;;;10.57;6.77;;;20.10;1.00;;;;;;5034993;28;20441;-81
2021/09/02 09:27:43;;;;;;;9.90;6.27;;;20.10;1.00;;;;;;5032922;28;20464;-81
2021/09/02 09:30:28;;;;;;;9.83;6.87;;;20.30;1.00;;;;;;5034518;28;20774;-81
2021/09/02 09:32:55;;;;;;;22.60;7.10;;;20.30;1.00;;;;;;5029020;28;20435;-82
2021/09/02 09:35:30;;;;;;;13.20;6.50;;;20.50;1.00;;;;;;5031041;28;20428;-81
2021/09/02 09:38:23;;;;;;;12.00;6.90;;;20.60;1.00;;;;;;5016341;28;20430;-81
2021/09/02 09:40:50;;;;;;;17.20;6.37;;;20.60;1.00;;;;;;5015853;28;20440;-81
2021/09/02 09:43:21;;;;;;;11.57;7.10;;;20.70;1.00;;;;;;5017248;28;20454;-81
2021/09/02 09:45:50;;;;;;;20.53;7.53;;;20.70;1.00;;;;;;5035647;28;20380;-81
2021/09/02 09:48:40;;;;;;;12.30;7.10;;;20.80;1.00;;;;;;5030697;28;20766;-81
2021/09/02 09:51:12;;;;;;;10.93;6.20;;;20.80;1.00;;;;;;5015509;28;20389;-81
2021/09/02 09:53:39;;;;;;;10.47;6.93;;;20.90;1.00;;;;;;5015687;28;20404;-81
2021/09/02 09:56:05;;;;;;;13.80;7.40;;;21.00;1.00;;;;;;5015254;28;20413;-81
2021/09/02 09:58:31;;;;;;;11.40;6.93;;;21.20;1.00;;;;;;5024484;28;20470;-81
2021/09/02 10:01:03;;;;;;;13.57;7.13;;;21.20;1.00;;;;;;5015573;28;20435;-81
2021/09/02 10:03:32;;;;;;;10.30;6.50;;;21.30;1.00;;;;;;5015240;28;20171;-77
2021/09/02 10:06:06;;;;;;;10.73;6.50;;;21.40;1.00;;;;;;5019892;28;20418;-77
2021/09/02 10:08:34;;;;;;;11.70;6.27;;;21.40;1.00;;;;;;5033924;28;20774;-77
2021/09/02 10:11:06;;;;;;;9.00;6.50;;;21.60;1.00;;;;;;5030232;28;20793;-77
2021/09/02 10:13:32;;;;;;;9.20;6.23;;;21.60;1.00;;;;;;5026152;28;20530;-77
2021/09/02 10:15:59;;;;;;;8.87;6.73;;;21.80;1.00;;;;;;5021231;28;20437;-77
2021/09/02 10:18:27;;;;;;;12.23;6.20;;;21.90;1.00;;;;;;5029598;28;20905;-80
2021/09/02 10:20:54;;;;;;;9.90;6.03;;;22.10;1.00;;;;;;5024676;28;20433;-81
2021/09/02 10:23:24;;;;;;;12.47;6.20;;;22.20;1.00;;;;;;5032177;28;20517;-80
2021/09/02 10:25:51;;;;;;;7.17;5.60;;;22.20;1.00;;;;;;5033165;28;20770;-80
2021/09/02 10:28:35;;;;;;;7.27;5.80;;;22.30;1.00;;;;;;5034346;28;20505;-80
2021/09/02 10:31:07;;;;;;;9.17;6.43;;;22.30;1.00;;;;;;5034538;28;20414;-78
2021/09/02 10:33:44;;;;;;;13.80;6.70;;;22.30;1.00;;;;;;5033531;28;20768;-78
2021/09/02 10:36:15;;;;;;;9.57;5.20;;;22.40;1.00;;;;;;5029982;28;20437;-78
2021/09/02 10:38:49;;;;;;;8.07;5.40;;;22.60;1.00;;;;;;5029598;28;20451;-77
2021/09/02 10:41:39;;;;;;;8.87;5.23;;;22.60;1.00;;;;;;5014211;28;20421;-77
2021/09/02 10:44:12;;;;;;;8.10;5.77;;;22.80;1.00;;;;;;5013121;28;20953;-78
2021/09/02 10:46:45;;;;;;;10.77;5.53;;;23.10;1.00;;;;;;5014601;28;20403;-78
2021/09/02 10:49:36;;;;;;;12.00;6.30;;;23.20;1.00;;;;;;5014912;28;20481;-78
2021/09/02 10:52:22;;;;;;;11.63;6.03;;;23.30;1.00;;;;;;5018488;28;20420;-78
2021/09/02 10:54:47;;;;;;;12.93;5.67;;;23.60;1.00;;;;;;5032833;28;20442;-78
2021/09/02 10:57:14;;;;;;;8.50;5.70;;;23.90;1.00;;;;;;5034523;28;20409;-77
2021/09/02 10:59:52;;;;;;;13.73;6.20;;;23.90;1.00;;;;;;5033935;28;20193;-77
2021/09/02 11:02:18;;;;;;;9.63;5.40;;;24.10;1.00;;;;;;5032935;28;20423;-77
2021/09/02 11:05:04;;;;;;;10.87;4.93;;;24.10;1.00;;;;;;5032536;28;20401;-77
2021/09/02 11:07:46;;;;;;;7.60;5.27;;;24.30;1.00;;;;;;5031693;28;20266;-77
2021/09/02 11:10:14;;;;;;;8.77;6.00;;;24.60;1.00;;;;;;5033700;28;20462;-77
2021/09/02 11:12:40;;;;;;;10.33;5.77;;;24.60;1.00;;;;;;5033793;28;20461;-77
2021/09/02 11:15:07;;;;;;;10.03;6.20;;;24.90;1.00;;;;;;5033612;28;20441;-78
2021/09/02 11:17:33;;;;;;;10.77;5.83;;;24.90;1.00;;;;;;5032997;28;20450;-78
2021/09/02 11:19:59;;;;;;;14.53;5.93;;;24.90;1.00;;;;;;5033128;28;20458;-78
2021/09/02 11:22:25;;;;;;;5.70;5.00;;;25.20;1.00;;;;;;5031294;28;20541;-77
2021/09/02 11:24:52;;;;;;;8.97;5.00;;;25.30;1.00;;;;;;5033165;28;20186;-77
2021/09/02 11:27:34;;;;;;;10.90;4.83;;;25.50;1.00;;;;;;5031947;28;20274;-77
2021/09/02 11:30:21;;;;;;;7.27;5.50;;;25.80;1.00;;;;;;5033491;28;20396;-78
2021/09/02 11:32:58;;;;;;;9.40;5.43;;;25.80;1.00;;;;;;5034086;28;20483;-78
2021/09/02 11:35:28;;;;;;;11.03;5.43;;;25.80;1.00;;;;;;5032973;28;20831;-77
2021/09/02 11:37:54;;;;;;;6.03;4.50;;;25.80;1.00;;;;;;5032586;28;20416;-78
2021/09/02 11:40:26;;;;;;;6.80;5.50;;;25.40;1.00;;;;;;5033750;28;20442;-77
2021/09/02 11:42:54;;;;;;;6.30;5.30;;;24.90;1.00;;;;;;5028637;28;20419;-77
2021/09/02 11:45:22;;;;;;;7.00;5.00;;;24.90;1.00;;;;;;5033942;28;20404;-77
2021/09/02 11:47:52;;;;;;;7.70;5.90;;;24.80;1.00;;;;;;5033007;28;20471;-77
2021/09/02 11:50:21;;;;;;;7.67;5.43;;;24.80;1.00;;;;;;5032757;28;20397;-79
2021/09/02 11:52:53;;;;;;;8.00;5.33;;;24.80;1.00;;;;;;5033263;28;20477;-80
2021/09/02 11:58:41;;;;;;;9.73;5.43;;;25.20;1.00;;;;;;5023263;28;20466;-75
2021/09/02 12:01:09;;;;;;;7.60;5.27;;;25.30;1.00;;;;;;5013149;28;20476;-76
2021/09/02 12:03:40;;;;;;;7.80;5.27;;;25.70;1.00;;;;;;5013250;28;20441;-77
2021/09/02 12:06:31;;;;;;;9.50;5.40;;;25.80;1.00;;;;;;5017628;28;20422;-77
2021/09/02 12:09:02;;;;;;;29.40;5.10;;;25.80;1.00;;;;;;5012440;28;20455;-77
2021/09/02 12:11:29;;;;;;;7.17;4.90;;;25.80;1.00;;;;;;5014055;28;20879;-78
2021/09/02 12:14:25;;;;;;;6.77;5.43;;;25.90;1.00;;;;;;5013930;28;20454;-77
2021/09/02 12:17:06;;;;;;;7.03;5.17;;;26.10;1.00;;;;;;5013917;28;20441;-76
2021/09/02 12:19:51;;;;;;;8.53;5.20;;;26.20;1.00;;;;;;5031689;28;20508;-76
2021/09/02 12:22:25;;;;;;;9.90;4.70;;;26.30;1.00;;;;;;5028094;28;20441;-76
2021/09/02 12:24:51;;;;;;;8.30;5.07;;;26.20;1.00;;;;;;5028102;28;20508;-76
2021/09/02 12:27:54;;;;;;;5.47;4.53;;;26.20;1.00;;;;;;5020728;28;20759;-76
2021/09/02 12:30:43;;;;;;;5.30;4.67;;;26.10;1.00;;;;;;4954669;28;20768;-77
2021/09/02 12:33:17;;;;;;;11.17;4.50;;;26.10;1.00;;;;;;4972155;28;20989;-76
2021/09/02 12:36:15;;;;;;;6.67;4.30;;;26.10;1.00;;;;;;4963444;28;20429;-79
2021/09/02 12:39:20;;;;;;;9.23;4.07;;;26.10;1.00;;;;;;4956363;28;21074;-77
2021/09/02 12:41:53;;;;;;;5.40;4.60;;;26.10;1.00;;;;;;4902565;29;20438;-76
2021/09/02 12:44:33;;;;;;;5.17;4.50;;;26.20;1.00;;;;;;4879231;29;20439;-76
2021/09/02 12:47:12;;;;;;;6.93;5.00;;;26.20;1.00;;;;;;4892560;29;20481;-76
2021/09/02 12:49:44;;;;;;;5.40;4.70;;;26.20;1.00;;;;;;4900417;29;20425;-76
2021/09/02 12:52:14;;;;;;;6.30;4.70;;;26.50;1.00;;;;;;4899127;29;20421;-76
2021/09/02 12:55:04;;;;;;;6.20;4.47;;;26.40;1.00;;;;;;4881003;29;20431;-76
2021/09/02 12:57:41;;;;;;;6.03;4.17;;;26.50;1.00;;;;;;4881439;29;20515;-76
2021/09/02 13:00:11;;;;;;;8.80;4.97;;;26.50;1.00;;;;;;4880042;29;20457;-77
2021/09/02 13:02:40;;;;;;;8.10;5.17;;;26.60;1.00;;;;;;4881071;29;20531;-76
2021/09/02 13:05:17;;;;;;;7.60;4.90;;;26.60;1.00;;;;;;4921129;29;20498;-77
2021/09/02 13:07:44;;;;;;;6.13;4.87;;;26.40;1.00;;;;;;4956980;29;20437;-76
2021/09/02 13:10:10;;;;;;;9.23;4.93;;;26.50;1.00;;;;;;4939702;29;20522;-77
2021/09/02 13:12:40;;;;;;;13.70;5.10;;;26.30;1.00;;;;;;4948964;29;20426;-77
2021/09/02 13:15:12;;;;;;;18.33;5.77;;;;;;;;;;4961415;28;20433;-77
2021/09/02 13:17:42;;;;;;;15.13;5.47;;;;;;;;;;5035307;28;20446;-77
2021/09/02 13:20:08;;;;;;;8.37;5.67;;;26.20;1.00;;;;;;5027279;28;20548;-77
2021/09/02 13:22:36;;;;;;;7.80;5.03;;;26.20;1.00;;;;;;5022128;28;20444;-77
2021/09/02 13:25:03;;;;;;;6.57;5.30;;;26.40;1.00;;;;;;5027377;28;20483;-77
2021/09/02 13:27:29;;;;;;;6.07;5.03;;;26.60;1.00;;;;;;5036442;28;20917;-77
2021/09/02 13:29:54;;;;;;;6.73;4.80;;;26.50;1.00;;;;;;5036149;28;20398;-77
2021/09/02 13:32:20;;;;;;;7.90;4.77;;;26.70;1.00;;;;;;5036400;28;20578;-77
2021/09/02 13:34:46;;;;;;;6.80;4.70;;;26.70;1.00;;;;;;5033412;28;20212;-77
2021/09/02 13:37:12;;;;;;;11.70;4.83;;;26.60;1.00;;;;;;5036251;28;20229;-77